Time;durP1;ratioP1;P1;durP2;ratioP2;P2;SDS_P1;SDS_P2;PMS_P1;PMS_P2;Temp;Humidity;BMP_temperature;BMP_pressure;BME280_temperature;BME280_humidity;BME280_pressure;Samples;Min_cycle;Max_cycle;Signal;HPM_P1;HPM_P2
2024/04/21 00:00:58;;;;;;;3.63;2.70;;;;;;;;;;5350967;26;20008;-62
2024/04/21 00:03:24;;;;;;;5.07;2.05;;;;;;;;;;5362874;26;20500;-61
2024/04/21 00:05:51;;;;;;;2.20;2.00;;;;;;;;;;5376679;26;20054;-61
2024/04/21 00:08:17;;;;;;;2.57;2.13;;;;;;;;;;5376943;26;20000;-62
2024/04/21 00:10:43;;;;;;;4.43;2.55;;;;;;;;;;5347578;26;19997;-60
2024/04/21 00:13:09;;;;;;;3.35;2.20;;;;;;;;;;5374463;26;20015;-60
2024/04/21 00:15:35;;;;;;;3.22;2.38;;;;;;;;;;5358965;26;19996;-61
2024/04/21 00:18:02;;;;;;;3.97;1.92;;;;;;;;;;5380609;26;20070;-61
2024/04/21 00:20:28;;;;;;;2.28;1.83;;;;;;;;;;5359612;26;20001;-61
2024/04/21 00:22:54;;;;;;;2.97;2.17;;;;;;;;;;5345866;26;20007;-61
2024/04/21 00:25:21;;;;;;;4.47;2.03;;;;;;;;;;5372468;26;20476;-61
2024/04/21 00:27:47;;;;;;;5.75;2.63;;;;;;;;;;5365196;26;20005;-62
2024/04/21 00:30:13;;;;;;;7.77;2.60;;;;;;;;;;5348828;26;20001;-61
2024/04/21 00:32:40;;;;;;;4.53;2.65;;;;;;;;;;5374923;26;20361;-61
2024/04/21 00:35:06;;;;;;;2.53;2.10;;;;;;;;;;5345817;26;20019;-62
2024/04/21 00:37:32;;;;;;;3.33;2.43;;;;;;;;;;5347560;26;20029;-61
2024/04/21 00:39:59;;;;;;;2.70;2.00;;;;;;;;;;5355823;26;20015;-62
2024/04/21 00:42:25;;;;;;;2.33;2.05;;;;;;;;;;5379914;26;20000;-62
2024/04/21 00:44:51;;;;;;;4.00;1.85;;;;;;;;;;5346453;26;20011;-61
2024/04/21 00:47:17;;;;;;;3.97;2.30;;;;;;;;;;5367253;26;20452;-61
2024/04/21 00:49:44;;;;;;;5.05;2.25;;;;;;;;;;5379048;26;20000;-61
2024/04/21 00:52:11;;;;;;;3.25;2.95;;;;;;;;;;5377747;26;20000;-61
2024/04/21 00:54:38;;;;;;;3.50;2.67;;;;;;;;;;5376614;26;20019;-61
2024/04/21 00:57:04;;;;;;;3.92;2.60;;;;;;;;;;5380217;26;20015;-61
2024/04/21 00:59:31;;;;;;;2.80;2.50;;;;;;;;;;5377699;26;20012;-61
2024/04/21 01:01:57;;;;;;;3.53;2.17;;;;;;;;;;5370085;26;20234;-62
2024/04/21 01:04:25;;;;;;;9.30;3.03;;;;;;;;;;5368523;26;20081;-61
2024/04/21 01:06:51;;;;;;;5.05;3.15;;;;;;;;;;5346978;26;20235;-60
2024/04/21 01:09:17;;;;;;;5.30;2.90;;;;;;;;;;5342655;26;20473;-61
2024/04/21 01:11:47;;;;;;;4.68;2.78;;;;;;;;;;5346738;26;19998;-62
2024/04/21 01:14:13;;;;;;;6.55;2.80;;;;;;;;;;5361047;26;20016;-61
2024/04/21 01:16:39;;;;;;;4.45;2.75;;;;;;;;;;5373934;26;20011;-61
2024/04/21 01:19:05;;;;;;;3.10;2.70;;;;;;;;;;5351428;26;20008;-61
2024/04/21 01:21:32;;;;;;;3.22;2.40;;;;;;;;;;5382380;26;20000;-62
2024/04/21 01:23:58;;;;;;;6.65;3.85;;;;;;;;;;5356738;26;20354;-61
2024/04/21 01:26:25;;;;;;;4.07;2.78;;;;;;;;;;5348203;26;20367;-62
2024/04/21 01:28:51;;;;;;;3.25;2.85;;;;;;;;;;5353864;26;19997;-61
2024/04/21 01:31:17;;;;;;;6.53;2.83;;;;;;;;;;5364842;26;20019;-62
2024/04/21 01:33:44;;;;;;;4.20;2.60;;;;;;;;;;5355727;26;20008;-61
2024/04/21 01:36:10;;;;;;;5.82;3.03;;;;;;;;;;5316966;26;20005;-61
2024/04/21 01:38:36;;;;;;;3.75;2.65;;;;;;;;;;5375003;26;20005;-62
2024/04/21 01:41:02;;;;;;;5.97;2.90;;;;;;;;;;5375514;26;20015;-62
2024/04/21 01:43:29;;;;;;;4.18;2.90;;;;;;;;;;5355252;26;20235;-59
2024/04/21 01:45:55;;;;;;;5.82;2.60;;;;;;;;;;5359211;26;20015;-60
2024/04/21 01:48:21;;;;;;;6.82;2.83;;;;;;;;;;5350510;26;20452;-61
2024/04/21 01:50:48;;;;;;;6.28;2.90;;;;;;;;;;5379819;26;20012;-62
2024/04/21 01:53:14;;;;;;;2.97;2.50;;;;;;;;;;5361177;26;20012;-62
2024/04/21 01:55:40;;;;;;;4.05;3.45;;;;;;;;;;5357141;26;20482;-62
2024/04/21 01:58:07;;;;;;;5.22;2.42;;;;;;;;;;5347306;26;19993;-60
2024/04/21 02:00:35;;;;;;;4.70;2.83;;;;;;;;;;5382717;26;20008;-61
2024/04/21 02:03:02;;;;;;;7.78;2.97;;;;;;;;;;5382406;26;19992;-61
2024/04/21 02:05:28;;;;;;;4.05;2.60;;;;;;;;;;5382233;26;19996;-60
2024/04/21 02:07:54;;;;;;;3.38;2.97;;;;;;;;;;5382140;26;19993;-62
2024/04/21 02:10:21;;;;;;;4.68;2.92;;;;;;;;;;5361678;26;20001;-62
2024/04/21 02:12:47;;;;;;;3.65;2.90;;;;;;;;;;5347272;26;19997;-61
2024/04/21 02:15:13;;;;;;;3.30;2.97;;;;;;;;;;5375638;26;20069;-61
2024/04/21 02:17:39;;;;;;;6.03;3.22;;;;;;;;;;5347525;26;20001;-60
2024/04/21 02:20:06;;;;;;;4.63;3.17;;;;;;;;;;5317053;26;19997;-61
2024/04/21 02:22:33;;;;;;;4.45;3.15;;;;;;;;;;5376711;26;20000;-61
2024/04/21 02:25:05;;;;;;;3.95;3.10;;;;;;;;;;5357800;26;20498;-62
2024/04/21 02:27:32;;;;;;;7.57;3.53;;;;;;;;;;5347316;26;20001;-61
2024/04/21 02:29:58;;;;;;;3.90;3.22;;;;;;;;;;5359682;26;20009;-62
2024/04/21 02:32:24;;;;;;;4.97;3.60;;;;;;;;;;5348726;26;20366;-61
2024/04/21 02:34:50;;;;;;;7.20;2.92;;;;;;;;;;5346985;26;20008;-61
2024/04/21 02:37:17;;;;;;;5.00;3.33;;;;;;;;;;5349142;26;20465;-62
2024/04/21 02:39:43;;;;;;;3.00;2.47;;;;;;;;;;5347272;26;20016;-61
2024/04/21 02:42:09;;;;;;;4.75;3.28;;;;;;;;;;5344062;26;20004;-60
2024/04/21 02:44:35;;;;;;;4.75;3.80;;;;;;;;;;5370207;26;20415;-61
2024/04/21 02:47:01;;;;;;;7.85;3.65;;;;;;;;;;5351667;26;20337;-62
2024/04/21 02:49:28;;;;;;;4.75;3.63;;;;;;;;;;5344439;26;20086;-62
2024/04/21 02:51:54;;;;;;;5.82;3.92;;;;;;;;;;5349152;26;20012;-60
2024/04/21 02:54:25;;;;;;;6.82;3.17;;;;;;;;;;5330954;26;20000;-60
2024/04/21 02:56:52;;;;;;;7.13;2.70;;;;;;;;;;5354304;26;20011;-62
2024/04/21 02:59:18;;;;;;;23.75;3.78;;;;;;;;;;5350624;26;20461;-61
2024/04/21 03:01:46;;;;;;;4.20;3.20;;;;;;;;;;5381276;26;19992;-61
2024/04/21 03:04:12;;;;;;;4.43;3.22;;;;;;;;;;5381793;26;20021;-61
2024/04/21 03:06:38;;;;;;;5.30;3.33;;;;;;;;;;5379955;26;20008;-62
2024/04/21 03:09:05;;;;;;;4.65;3.15;;;;;;;;;;5379459;26;20007;-62
2024/04/21 03:11:31;;;;;;;5.50;3.47;;;;;;;;;;5376444;26;20342;-61
2024/04/21 03:13:57;;;;;;;6.25;3.70;;;;;;;;;;5346468;26;19993;-61
2024/04/21 03:16:23;;;;;;;5.35;3.47;;;;;;;;;;5346223;26;20400;-62
2024/04/21 03:18:49;;;;;;;4.68;3.45;;;;;;;;;;5346424;26;20004;-62
2024/04/21 03:21:16;;;;;;;6.13;2.90;;;;;;;;;;5346209;26;20005;-62
2024/04/21 03:23:42;;;;;;;4.90;3.80;;;;;;;;;;5344593;26;20450;-62
2024/04/21 03:26:08;;;;;;;5.47;3.05;;;;;;;;;;5346212;26;19997;-62
2024/04/21 03:28:34;;;;;;;4.93;3.33;;;;;;;;;;5346485;26;20361;-62
2024/04/21 03:31:01;;;;;;;7.28;4.00;;;;;;;;;;5344033;26;19997;-60
2024/04/21 03:33:27;;;;;;;4.97;3.60;;;;;;;;;;5346100;26;20007;-62
2024/04/21 03:36:02;;;;;;;4.15;3.47;;;;;;;;;;5346504;26;19993;-62
2024/04/21 03:38:29;;;;;;;5.30;3.00;;;;;;;;;;5345090;26;20008;-64
2024/04/21 03:40:55;;;;;;;;;;;;;;;;;;5315887;26;19997;-61
2024/04/21 03:43:21;;;;;;;5.43;3.55;;;;;;;;;;5345940;26;19926;-61
2024/04/21 03:45:47;;;;;;;6.00;3.75;;;;;;;;;;5344493;26;20465;-62
2024/04/21 03:48:14;;;;;;;4.32;3.22;;;;;;;;;;5353414;26;20407;-62
2024/04/21 03:50:41;;;;;;;6.18;4.25;;;;;;;;;;5381018;26;20521;-63
2024/04/21 03:53:09;;;;;;;5.28;4.05;;;;;;;;;;5381020;26;20070;-62
2024/04/21 03:55:35;;;;;;;5.10;3.60;;;;;;;;;;5380382;26;19992;-62
2024/04/21 03:58:10;;;;;;;5.90;3.45;;;;;;;;;;5379717;26;20015;-62
2024/04/21 04:00:36;;;;;;;5.85;3.00;;;;;;;;;;5349063;26;19996;-61
2024/04/21 04:03:02;;;;;;;5.82;3.72;;;;;;;;;;5379957;26;19996;-62
2024/04/21 04:05:29;;;;;;;10.27;3.40;;;;;;;;;;5378190;26;20008;-62
2024/04/21 04:07:55;;;;;;;4.20;3.10;;;;;;;;;;5379940;26;20077;-62
2024/04/21 04:10:21;;;;;;;4.53;3.53;;;;;;;;;;5379866;26;19996;-62
2024/04/21 04:12:47;;;;;;;7.70;3.33;;;;;;;;;;5380791;26;20504;-62
2024/04/21 04:15:14;;;;;;;5.55;4.03;;;;;;;;;;5380619;26;20010;-61
2024/04/21 04:17:40;;;;;;;;;;;;;;;;;;5381329;26;20011;-62
2024/04/21 04:20:09;;;;;;;4.93;3.55;;;;;;;;;;5380319;26;19933;-62
2024/04/21 04:22:36;;;;;;;4.60;3.58;;;;;;;;;;5349560;26;20399;-61
2024/04/21 04:25:03;;;;;;;3.92;3.22;;;;;;;;;;5380265;26;20070;-62
2024/04/21 04:27:29;;;;;;;6.88;3.30;;;;;;;;;;5380479;26;20077;-62
2024/04/21 04:29:55;;;;;;;4.37;3.13;;;;;;;;;;5380100;26;19992;-62
2024/04/21 04:32:27;;;;;;;5.82;3.70;;;;;;;;;;5380756;26;20007;-62
2024/04/21 04:34:55;;;;;;;6.32;3.50;;;;;;;;;;5381027;26;20008;-62
2024/04/21 04:37:21;;;;;;;6.90;4.10;;;;;;;;;;5380372;26;20448;-62
2024/04/21 04:39:47;;;;;;;6.45;3.90;;;;;;;;;;5379806;26;20790;-62
2024/04/21 04:42:13;;;;;;;4.30;3.72;;;;;;;;;;5378537;26;20003;-62
2024/04/21 04:44:40;;;;;;;4.27;3.60;;;;;;;;;;5378530;26;19996;-62
2024/04/21 04:47:06;;;;;;;5.03;3.37;;;;;;;;;;5380390;26;20008;-60
2024/04/21 04:49:32;;;;;;;4.78;3.75;;;;;;;;;;5400356;21;20451;-55
2024/04/21 04:51:59;;;;;;;4.15;3.00;;;;;;;;;;5415772;26;20160;-52
2024/04/21 04:54:25;;;;;;;5.33;3.83;;;;;;;;;;5413663;26;19999;-56
2024/04/21 04:56:54;;;;;;;3.97;3.60;;;;;;;;;;5415483;26;19999;-56
2024/04/21 04:59:21;;;;;;;5.90;3.90;;;;;;;;;;5415447;26;20030;-55
2024/04/21 05:01:47;;;;;;;4.97;3.38;;;;;;;;;;5413725;26;20002;-55
2024/04/21 05:04:13;;;;;;;6.07;3.95;;;;;;;;;;5413837;26;19991;-56
2024/04/21 05:06:39;;;;;;;6.30;3.93;;;;;;;;;;5414136;26;20007;-52
2024/04/21 05:09:06;;;;;;;4.90;3.53;;;;;;;;;;5413235;26;20007;-55
2024/04/21 05:11:32;;;;;;;7.07;3.72;;;;;;;;;;5415624;26;19995;-54
2024/04/21 05:13:58;;;;;;;5.03;3.80;;;;;;;;;;5415676;26;19991;-53
2024/04/21 05:16:25;;;;;;;5.70;3.25;;;;;;;;;;5415617;26;20007;-51
2024/04/21 05:18:51;;;;;;;6.50;4.00;;;;;;;;;;5414978;26;19996;-55
2024/04/21 05:21:17;;;;;;;3.90;3.50;;;;;;;;;;5415173;26;19999;-52
2024/04/21 05:23:43;;;;;;;6.03;3.50;;;;;;;;;;5414916;26;20312;-53
2024/04/21 05:26:10;;;;;;;9.27;4.00;;;;;;;;;;5415135;26;20007;-52
2024/04/21 05:28:36;;;;;;;5.25;3.83;;;;;;;;;;5414963;26;20003;-51
2024/04/21 05:31:02;;;;;;;4.28;3.53;;;;;;;;;;5414581;26;20475;-52
2024/04/21 05:33:28;;;;;;;5.10;3.55;;;;;;;;;;5413398;26;19995;-56
2024/04/21 05:35:55;;;;;;;6.88;4.07;;;;;;;;;;5414911;26;20340;-56
2024/04/21 05:38:21;;;;;;;5.25;3.92;;;;;;;;;;5413300;26;20003;-52
2024/04/21 05:40:48;;;;;;;4.97;3.05;;;;;;;;;;5414397;26;19992;-52
2024/04/21 05:43:14;;;;;;;4.95;3.25;;;;;;;;;;5414897;26;20003;-52
2024/04/21 05:45:40;;;;;;;6.28;3.70;;;;;;;;;;5414941;26;20064;-56
2024/04/21 05:48:07;;;;;;;4.95;3.22;;;;;;;;;;5414494;26;20003;-52
2024/04/21 05:50:33;;;;;;;5.70;3.65;;;;;;;;;;5413851;26;20006;-53
2024/04/21 05:52:59;;;;;;;5.45;3.17;;;;;;;;;;5383184;26;19995;-52
2024/04/21 05:55:26;;;;;;;7.32;3.42;;;;;;;;;;5414597;26;20003;-53
2024/04/21 05:57:52;;;;;;;4.13;3.40;;;;;;;;;;5383363;26;20417;-51
2024/04/21 06:00:18;;;;;;;4.22;2.90;;;;;;;;;;5412727;26;20460;-51
2024/04/21 06:02:44;;;;;;;7.40;2.63;;;;;;;;;;5417853;26;20068;-53
2024/04/21 06:05:10;;;;;;;4.43;2.95;;;;;;;;;;5417987;26;20010;-52
2024/04/21 06:07:37;;;;;;;4.82;2.95;;;;;;;;;;5416359;26;20444;-53
2024/04/21 06:10:04;;;;;;;4.22;3.13;;;;;;;;;;5404312;26;19999;-53
2024/04/21 06:12:30;;;;;;;4.20;2.97;;;;;;;;;;5388650;26;20001;-55
2024/04/21 06:14:56;;;;;;;4.23;3.50;;;;;;;;;;5384130;26;20000;-55
2024/04/21 06:17:22;;;;;;;5.13;3.15;;;;;;;;;;5403239;26;20011;-52
2024/04/21 06:19:48;;;;;;;4.30;3.70;;;;;;;;;;5381213;26;20000;-55
2024/04/21 06:22:15;;;;;;;5.10;2.80;;;;;;;;;;5380521;26;20065;-56
2024/04/21 06:24:41;;;;;;;4.70;3.05;;;;;;;;;;5382095;26;19992;-52
2024/04/21 06:27:07;;;;;;;3.72;2.70;;;;;;;;;;5380463;26;19992;-54
2024/04/21 06:29:33;;;;;;;3.60;2.65;;;;;;;;;;5381894;26;19996;-53
2024/04/21 06:31:59;;;;;;;4.15;3.38;;;;;;;;;;5382183;26;19996;-56
2024/04/21 06:34:26;;;;;;;7.03;2.63;;;;;;;;;;5382004;26;20008;-56
2024/04/21 06:36:52;;;;;;;36.97;5.10;;;;;;;;;;5381753;26;20392;-51
2024/04/21 06:39:18;;;;;;;6.40;2.63;;;;;;;;;;5362814;26;20340;-55
2024/04/21 06:41:44;;;;;;;4.47;3.17;;;;;;;;;;5376917;26;20004;-55
2024/04/21 06:44:10;;;;;;;5.47;2.65;;;;;;;;;;5397040;26;20044;-54
2024/04/21 06:46:37;;;;;;;4.57;2.70;;;;;;;;;;5391434;26;19996;-52
2024/04/21 06:49:03;;;;;;;3.92;2.33;;;;;;;;;;5392002;26;20076;-52
2024/04/21 06:51:29;;;;;;;3.78;3.00;;;;;;;;;;5392277;26;20431;-52
2024/04/21 06:53:55;;;;;;;3.53;2.50;;;;;;;;;;5391018;26;20004;-52
2024/04/21 06:56:21;;;;;;;5.50;3.47;;;;;;;;;;5394545;26;20004;-51
2024/04/21 06:58:48;;;;;;;4.20;2.30;;;;;;;;;;5392563;26;20000;-53
2024/04/21 07:01:14;;;;;;;3.40;2.67;;;;;;;;;;5392308;26;20004;-55
2024/04/21 07:03:40;;;;;;;4.32;2.88;;;;;;;;;;5391552;26;20008;-52
2024/04/21 07:06:07;;;;;;;4.60;3.23;;;;;;;;;;5389309;26;20007;-55
2024/04/21 07:08:33;;;;;;;6.82;2.67;;;;;;;;;;5393793;26;20230;-56
2024/04/21 07:11:00;;;;;;;4.28;2.35;;;;;;;;;;5401825;26;20007;-55
2024/04/21 07:13:26;;;;;;;4.30;2.45;;;;;;;;;;5399899;26;20000;-55
2024/04/21 07:15:52;;;;;;;2.35;2.10;;;;;;;;;;5402981;26;20336;-60
2024/04/21 07:18:19;;;;;;;5.28;2.97;;;;;;;;;;5403198;26;20004;-58
2024/04/21 07:20:45;;;;;;;4.40;2.83;;;;;;;;;;5401575;26;20344;-58
2024/04/21 07:23:11;;;;;;;5.47;2.88;;;;;;;;;;5379822;26;20007;-58
2024/04/21 07:25:37;;;;;;;3.22;2.47;;;;;;;;;;5383680;26;20020;-58
2024/04/21 07:28:03;;;;;;;3.80;2.72;;;;;;;;;;5395408;26;20010;-59
2024/04/21 07:30:30;;;;;;;4.50;3.07;;;;;;;;;;5376329;26;20077;-58
2024/04/21 07:32:56;;;;;;;5.35;3.05;;;;;;;;;;5391177;26;20069;-51
2024/04/21 07:35:22;;;;;;;3.13;2.80;;;;;;;;;;5392359;26;20000;-52
2024/04/21 07:37:48;;;;;;;5.00;3.33;;;;;;;;;;5394699;26;20454;-51
2024/04/21 07:40:16;;;;;;;4.22;3.15;;;;;;;;;;5404219;26;20464;-52
2024/04/21 07:42:42;;;;;;;3.60;2.92;;;;;;;;;;5402091;26;20019;-54
2024/04/21 07:45:09;;;;;;;3.97;2.92;;;;;;;;;;5391834;26;20485;-54
2024/04/21 07:47:35;;;;;;;4.75;2.95;;;;;;;;;;5391828;26;20039;-54
2024/04/21 07:50:02;;;;;;;4.50;2.63;;;;;;;;;;5393533;26;20022;-54
2024/04/21 07:52:28;;;;;;;6.65;3.05;;;;;;;;;;5393379;26;20000;-52
2024/04/21 07:54:55;;;;;;;6.25;3.17;;;;;;;;;;5387421;26;20004;-55
2024/04/21 07:57:21;;;;;;;5.47;3.40;;;;;;;;;;5378149;26;19996;-54
2024/04/21 07:59:47;;;;;;;3.90;2.85;;;;;;;;;;5383812;26;20004;-53
2024/04/21 08:02:13;;;;;;;3.87;2.87;;;;;;;;;;5395653;26;20395;-51
2024/04/21 08:04:40;;;;;;;3.88;2.70;;;;;;;;;;5414625;26;20007;-54
2024/04/21 08:07:17;;;;;;;7.10;3.60;;;;;;;;;;5385213;26;20439;-55
2024/04/21 08:09:44;;;;;;;5.93;3.65;;;;;;;;;;5380293;26;20415;-54
2024/04/21 08:12:10;;;;;;;5.40;3.25;;;;;;;;;;5392798;26;20044;-54
2024/04/21 08:14:36;;;;;;;5.23;3.40;;;;;;;;;;5423396;26;20069;-51
2024/04/21 08:17:03;;;;;;;5.07;3.25;;;;;;;;;;5390192;26;20015;-54
2024/04/21 08:19:29;;;;;;;4.95;3.03;;;;;;;;;;5389509;26;20076;-54
2024/04/21 08:21:55;;;;;;;5.03;3.58;;;;;;;;;;5380591;26;20010;-55
2024/04/21 08:24:22;;;;;;;5.25;2.88;;;;;;;;;;5396134;26;20074;-54
2024/04/21 08:26:49;;;;;;;;;;;;;;;;;;5396878;26;20000;-55
2024/04/21 08:29:15;;;;;;;4.20;3.50;;;;;;;;;;5392929;26;19933;-50
2024/04/21 08:31:44;;;;;;;3.78;2.90;;;;;;;;;;5382646;26;20007;-50
2024/04/21 08:34:11;;;;;;;5.90;3.50;;;;;;;;;;5380825;26;19992;-50
2024/04/21 08:36:41;;;;;;;6.38;3.00;;;;;;;;;;5388311;26;20000;-50
2024/04/21 08:39:12;;;;;;;4.65;3.28;;;;;;;;;;5389736;26;20019;-51
2024/04/21 08:41:41;;;;;;;4.55;3.55;;;;;;;;;;5393951;26;20011;-52
2024/04/21 08:44:11;;;;;;;3.88;2.70;;;;;;;;;;5380426;26;20000;-50
2024/04/21 08:46:38;;;;;;;5.82;3.97;;;;;;;;;;5380573;26;20352;-51
2024/04/21 08:49:05;;;;;;;4.50;3.58;;;;;;;;;;5379714;26;19996;-50
2024/04/21 08:51:35;;;;;;;5.05;3.17;;;;;;;;;;5378386;26;20024;-51
2024/04/21 08:54:02;;;;;;;5.65;3.70;;;;;;;;;;5378766;26;20032;-51
2024/04/21 08:56:32;;;;;;;4.88;3.53;;;;;;;;;;5378016;26;20000;-53
2024/04/21 08:58:58;;;;;;;4.72;3.47;;;;;;;;;;5379656;26;19992;-51
2024/04/21 09:01:26;;;;;;;5.00;3.65;;;;;;;;;;5379840;26;20000;-53
2024/04/21 09:03:52;;;;;;;4.15;2.90;;;;;;;;;;5378415;26;20264;-52
2024/04/21 09:06:25;;;;;;;6.57;3.10;;;;;;;;;;5378035;26;20070;-53
2024/04/21 09:08:52;;;;;;;4.13;2.75;;;;;;;;;;5348869;26;19992;-53
2024/04/21 09:11:18;;;;;;;3.95;3.40;;;;;;;;;;5378264;26;20000;-50
2024/04/21 09:13:44;;;;;;;5.20;3.33;;;;;;;;;;5379767;26;20008;-52
2024/04/21 09:16:11;;;;;;;4.57;2.95;;;;;;;;;;5379995;26;20536;-54
2024/04/21 09:18:37;;;;;;;5.10;3.10;;;;;;;;;;5379517;26;20000;-51
2024/04/21 09:21:04;;;;;;;6.03;4.03;;;;;;;;;;5379516;26;20089;-52
2024/04/21 09:23:30;;;;;;;5.53;3.67;;;;;;;;;;5378266;26;20004;-52
2024/04/21 09:25:57;;;;;;;5.80;2.90;;;;;;;;;;5378127;26;19996;-52
2024/04/21 09:28:24;;;;;;;5.50;2.72;;;;;;;;;;5379850;26;20015;-52
2024/04/21 09:30:50;;;;;;;6.68;2.55;;;;;;;;;;5379226;26;20348;-54
2024/04/21 09:33:16;;;;;;;5.00;2.92;;;;;;;;;;5377952;26;20003;-50
2024/04/21 09:35:43;;;;;;;4.83;3.03;;;;;;;;;;5380295;26;20455;-51
2024/04/21 09:38:09;;;;;;;5.85;2.95;;;;;;;;;;5382838;26;19996;-52
2024/04/21 09:40:36;;;;;;;4.95;2.58;;;;;;;;;;5382820;26;19993;-54
2024/04/21 09:43:02;;;;;;;;;;;;;;;;;;5383639;26;20074;-53
2024/04/21 09:45:29;;;;;;;4.30;2.55;;;;;;;;;;5382927;26;19926;-52
2024/04/21 09:47:58;;;;;;;4.00;2.47;;;;;;;;;;5381300;26;19996;-54
2024/04/21 09:50:26;;;;;;;3.90;2.92;;;;;;;;;;5382601;26;20061;-52
2024/04/21 09:52:57;;;;;;;3.53;2.63;;;;;;;;;;5380805;26;19996;-53
2024/04/21 09:55:24;;;;;;;4.53;2.78;;;;;;;;;;5380886;26;19996;-55
2024/04/21 09:57:57;;;;;;;5.28;3.00;;;;;;;;;;5382790;26;20003;-51
2024/04/21 10:00:24;;;;;;;3.90;2.60;;;;;;;;;;5382391;26;20460;-51
2024/04/21 10:02:51;;;;;;;4.72;3.45;;;;;;;;;;5382210;26;20004;-52
2024/04/21 10:05:18;;;;;;;4.88;2.88;;;;;;;;;;5382426;26;19992;-53
2024/04/21 10:07:45;;;;;;;4.07;2.80;;;;;;;;;;5382969;26;20539;-51
2024/04/21 10:10:12;;;;;;;4.88;2.90;;;;;;;;;;5382153;26;19996;-51
2024/04/21 10:12:38;;;;;;;3.78;2.47;;;;;;;;;;5382256;26;20004;-53
2024/04/21 10:15:10;;;;;;;21.70;5.05;;;;;;;;;;5380300;26;20038;-51
2024/04/21 10:17:36;;;;;;;5.97;2.60;;;;;;;;;;5382268;26;20003;-54
2024/04/21 10:20:06;;;;;;;4.50;3.05;;;;;;;;;;5380185;26;20016;-52
2024/04/21 10:22:33;;;;;;;3.95;2.67;;;;;;;;;;5380710;26;20347;-51
2024/04/21 10:25:00;;;;;;;4.38;3.28;;;;;;;;;;5382484;26;19992;-54
2024/04/21 10:27:26;;;;;;;4.10;2.65;;;;;;;;;;5380344;26;20052;-51
2024/04/21 10:29:52;;;;;;;5.80;2.93;;;;;;;;;;5380410;26;20344;-54
2024/04/21 10:32:25;;;;;;;4.32;3.35;;;;;;;;;;5381984;26;20011;-53
2024/04/21 10:34:52;;;;;;;4.53;2.90;;;;;;;;;;5382376;26;19996;-52
2024/04/21 10:37:21;;;;;;;2.73;2.00;;;;;;;;;;5382287;26;20062;-52
2024/04/21 10:39:47;;;;;;;4.40;2.45;;;;;;;;;;5381546;26;20558;-51
2024/04/21 10:42:15;;;;;;;5.38;2.40;;;;;;;;;;5381701;26;20004;-51
2024/04/21 10:44:42;;;;;;;3.53;2.05;;;;;;;;;;5382321;26;19992;-51
2024/04/21 10:47:08;;;;;;;3.42;2.33;;;;;;;;;;5392401;26;20000;-55
2024/04/21 10:49:34;;;;;;;4.70;2.72;;;;;;;;;;5419312;21;20011;-56
2024/04/21 10:52:01;;;;;;;4.53;2.73;;;;;;;;;;5386230;26;20076;-56
2024/04/21 10:54:27;;;;;;;4.13;2.90;;;;;;;;;;5374685;26;20011;-57
2024/04/21 10:56:54;;;;;;;2.97;2.38;;;;;;;;;;5415400;26;20570;-57
2024/04/21 10:59:20;;;;;;;3.80;2.75;;;;;;;;;;5388625;26;20004;-55
2024/04/21 11:01:47;;;;;;;3.63;2.73;;;;;;;;;;5372129;26;20024;-57
2024/04/21 11:04:13;;;;;;;6.10;3.20;;;;;;;;;;5362761;26;20253;-57
2024/04/21 11:06:40;;;;;;;3.17;2.45;;;;;;;;;;5343032;26;20001;-58
2024/04/21 11:09:09;;;;;;;3.85;2.67;;;;;;;;;;5346633;26;20013;-57
2024/04/21 11:11:35;;;;;;;3.15;2.45;;;;;;;;;;5316506;26;20011;-57
2024/04/21 11:14:02;;;;;;;2.90;2.50;;;;;;;;;;5346730;26;20773;-56
2024/04/21 11:16:31;;;;;;;4.10;3.03;;;;;;;;;;5364159;26;20015;-55
2024/04/21 11:19:00;;;;;;;3.60;2.90;;;;;;;;;;5305715;26;20794;-58
2024/04/21 11:21:26;;;;;;;4.47;2.40;;;;;;;;;;5348888;26;20005;-57
2024/04/21 11:23:53;;;;;;;3.37;2.60;;;;;;;;;;5334268;26;20461;-57
2024/04/21 11:26:20;;;;;;;3.08;2.40;;;;;;;;;;5351959;26;20004;-55
2024/04/21 11:28:46;;;;;;;2.95;2.65;;;;;;;;;;5364880;26;20017;-57
2024/04/21 11:31:13;;;;;;;3.08;2.58;;;;;;;;;;5362818;26;19997;-57
2024/04/21 11:33:39;;;;;;;3.15;2.63;;;;;;;;;;5330852;26;20015;-57
2024/04/21 11:36:07;;;;;;;3.80;2.85;;;;;;;;;;5315070;26;20028;-55
2024/04/21 11:38:33;;;;;;;4.45;2.75;;;;;;;;;;5366600;26;20364;-56
2024/04/21 11:40:59;;;;;;;5.70;2.60;;;;;;;;;;5355242;26;20017;-56
2024/04/21 11:43:27;;;;;;;6.27;2.60;;;;;;;;;;5319873;26;20004;-58
2024/04/21 11:45:53;;;;;;;2.95;2.33;;;;;;;;;;5367670;26;20291;-56
2024/04/21 11:48:19;;;;;;;3.47;2.50;;;;;;;;;;5344345;26;20005;-57
2024/04/21 11:50:46;;;;;;;2.72;2.10;;;;;;;;;;5350161;26;20099;-56
2024/04/21 11:53:12;;;;;;;3.58;2.20;;;;;;;;;;5346461;26;20009;-56
2024/04/21 11:55:38;;;;;;;2.63;1.60;;;;;;;;;;5344051;26;20019;-56
2024/04/21 11:58:04;;;;;;;2.13;1.93;;;;;;;;;;5378419;26;20008;-57
2024/04/21 12:00:31;;;;;;;2.87;2.07;;;;;;;;;;5370174;26;20001;-57
2024/04/21 12:02:57;;;;;;;2.33;1.70;;;;;;;;;;5313488;26;20441;-57
2024/04/21 12:05:23;;;;;;;3.40;1.90;;;;;;;;;;5352528;26;20035;-54
2024/04/21 12:07:49;;;;;;;2.77;1.90;;;;;;;;;;5342637;26;20471;-57
2024/04/21 12:10:15;;;;;;;2.27;1.47;;;;;;;;;;5348888;26;20012;-56
2024/04/21 12:12:42;;;;;;;2.42;2.00;;;;;;;;;;5338637;26;20361;-56
2024/04/21 12:15:08;;;;;;;2.22;1.75;;;;;;;;;;5362188;26;20012;-56
2024/04/21 12:17:35;;;;;;;5.20;2.23;;;;;;;;;;5343636;26;19997;-57
2024/04/21 12:20:01;;;;;;;6.78;2.33;;;;;;;;;;5371832;26;20000;-56
2024/04/21 12:22:27;;;;;;;5.40;1.90;;;;;;;;;;5378985;26;20000;-57
2024/04/21 12:24:53;;;;;;;2.67;1.87;;;;;;;;;;5333549;26;20031;-57
2024/04/21 12:27:19;;;;;;;2.27;1.77;;;;;;;;;;5378685;26;20016;-56
2024/04/21 12:29:46;;;;;;;2.83;2.47;;;;;;;;;;5346211;26;20286;-58
2024/04/21 12:32:12;;;;;;;3.50;1.80;;;;;;;;;;5342925;26;20036;-57
2024/04/21 12:34:38;;;;;;;3.13;1.80;;;;;;;;;;5339351;26;20069;-56
2024/04/21 12:37:04;;;;;;;2.57;1.90;;;;;;;;;;5378521;26;20261;-54
2024/04/21 12:39:31;;;;;;;4.97;2.20;;;;;;;;;;5375132;26;20234;-57
2024/04/21 12:41:57;;;;;;;2.80;1.92;;;;;;;;;;5360659;26;20066;-55
2024/04/21 12:44:23;;;;;;;1.58;1.35;;;;;;;;;;5375707;26;20000;-57
2024/04/21 12:46:49;;;;;;;2.67;1.63;;;;;;;;;;5376932;26;19992;-56
2024/04/21 12:49:15;;;;;;;4.30;1.50;;;;;;;;;;5378338;26;20003;-56
2024/04/21 12:51:42;;;;;;;3.93;3.53;;;;;;;;;;5379276;26;20003;-58
2024/04/21 12:54:08;;;;;;;2.33;1.60;;;;;;;;;;5378564;26;19999;-57
2024/04/21 12:56:34;;;;;;;3.13;2.03;;;;;;;;;;5333192;26;20463;-56
2024/04/21 12:59:01;;;;;;;4.03;2.20;;;;;;;;;;5376211;26;20040;-58
2024/04/21 13:01:27;;;;;;;;;;;;;;;;;;5347798;26;20452;-55
2024/04/21 13:03:53;;;;;;;2.13;1.35;;;;;;;;;;5347345;26;19972;-56
2024/04/21 13:06:20;;;;;;;2.47;1.60;;;;;;;;;;5344594;26;20007;-58
2024/04/21 13:08:46;;;;;;;2.03;1.33;;;;;;;;;;5377990;26;19996;-57
2024/04/21 13:11:12;;;;;;;3.10;1.70;;;;;;;;;;5377975;26;20525;-48
2024/04/21 13:13:38;;;;;;;4.72;1.95;;;;;;;;;;5377874;26;20028;-56
2024/04/21 13:16:05;;;;;;;2.80;1.53;;;;;;;;;;5347170;26;20003;-58
2024/04/21 13:18:31;;;;;;;2.55;2.35;;;;;;;;;;5318548;26;20006;-56
2024/04/21 13:20:58;;;;;;;2.87;1.70;;;;;;;;;;5374591;26;19996;-60
2024/04/21 13:23:24;;;;;;;2.03;1.60;;;;;;;;;;5342395;26;20001;-61
2024/04/21 13:25:50;;;;;;;2.73;1.70;;;;;;;;;;5349310;26;19997;-61
2024/04/21 13:28:16;;;;;;;2.60;1.50;;;;;;;;;;5371367;26;19996;-61
2024/04/21 13:30:43;;;;;;;2.17;1.77;;;;;;;;;;5315054;26;20001;-61
2024/04/21 13:33:09;;;;;;;2.20;1.80;;;;;;;;;;5342836;26;19997;-61
2024/04/21 13:35:35;;;;;;;2.10;1.60;;;;;;;;;;5346048;26;20001;-61
2024/04/21 13:38:01;;;;;;;3.53;1.75;;;;;;;;;;5345081;26;20341;-61
2024/04/21 13:40:28;;;;;;;1.90;1.60;;;;;;;;;;5346250;26;20066;-61
2024/04/21 13:42:54;;;;;;;3.53;1.55;;;;;;;;;;5317161;26;20345;-61
2024/04/21 13:45:20;;;;;;;1.95;1.55;;;;;;;;;;5372452;26;20064;-60
2024/04/21 13:47:46;;;;;;;2.88;1.90;;;;;;;;;;5351959;26;20405;-60
2024/04/21 13:50:12;;;;;;;3.38;1.95;;;;;;;;;;5375980;26;19996;-61
2024/04/21 13:52:39;;;;;;;1.85;1.38;;;;;;;;;;5379731;26;20310;-60
2024/04/21 13:55:05;;;;;;;3.05;1.73;;;;;;;;;;5378680;26;19992;-61
2024/04/21 13:57:34;;;;;;;2.75;1.92;;;;;;;;;;5349868;26;19997;-60
2024/04/21 14:00:00;;;;;;;4.40;1.90;;;;;;;;;;5313613;26;20461;-61
2024/04/21 14:02:28;;;;;;;1.80;1.70;;;;;;;;;;5322815;26;20495;-60
2024/04/21 14:04:54;;;;;;;2.03;1.80;;;;;;;;;;5344242;26;20127;-59
2024/04/21 14:07:20;;;;;;;2.08;1.70;;;;;;;;;;5361803;26;20001;-60
2024/04/21 14:09:47;;;;;;;1.90;1.80;;;;;;;;;;5314578;26;20420;-60
2024/04/21 14:12:13;;;;;;;;;;;;;;;;;;5338788;26;20011;-60
2024/04/21 14:14:39;;;;;;;3.03;1.77;;;;;;;;;;5333854;26;19926;-58
2024/04/21 14:17:06;;;;;;;2.35;1.20;;;;;;;;;;5366724;26;20043;-60
2024/04/21 14:19:32;;;;;;;1.33;1.13;;;;;;;;;;5319523;26;20007;-60
2024/04/21 14:21:58;;;;;;;1.40;1.30;;;;;;;;;;5379770;26;20362;-60
2024/04/21 14:24:24;;;;;;;1.25;1.00;;;;;;;;;;5348766;26;20073;-58
2024/04/21 14:26:50;;;;;;;4.38;0.85;;;;;;;;;;5348610;26;19993;-60
2024/04/21 14:29:16;;;;;;;1.05;0.90;;;;;;;;;;5346541;26;20000;-58
2024/04/21 14:31:43;;;;;;;0.63;0.63;;;;;;;;;;5316349;26;19992;-59
2024/04/21 14:34:09;;;;;;;0.55;0.55;;;;;;;;;;5316719;26;20000;-57
2024/04/21 14:36:35;;;;;;;3.88;0.63;;;;;;;;;;5316956;26;20003;-59
2024/04/21 14:39:01;;;;;;;1.48;0.73;;;;;;;;;;5316256;26;20281;-59
2024/04/21 14:41:28;;;;;;;4.30;0.77;;;;;;;;;;5347215;26;20000;-58